aviador You're here:

LFRI Decoded Metar

LA ROCHE-SUR-YON in FRANCE
Report Time2018-07-22 22:00:00
UTC Time2018-07-22 22:27:40
Flight Rules vfr VFR
Wind310° at 04 kt
W.Decomp.*RWY 28: 3.4 kt HW 2.1 kt RCW
W.Rank310° ranks 22
Current wind is below 310° avg. (6.7)
Visibility9999 m
Phenomena:N/A
Clouds:N/A
Expected CloudBase > 800 ft AGL from Temp-Dew spread
CeilingNone
Temp17°C (ISA +3)
Dew Point15°C (88% RH)
QNH1019 hPa
Density Alt630 ft
Elevation299 ft
Report Wrong Elevation
Raw Report
METAR LFRI 222200Z AUTO 31004KT CAVOK 17/15 Q1019=

Extra information for LFRI:More info

Metar Taf Metar & Taf Last 4 Metars F.Rules Stats Wind Profile Meteogram Temp Stats Airport Information Weather charts Add Link Nearby VenuesMetar ALERT Operation Metar Decoded Social comments